Airfield :
LOGIN :

Register | Disclaimer

   EN    FR    IT 

 










Legend :    VFR   Marginal VFR   IFR   Intensive IFR   Very Intensive IFR
Visi :
Ceiling :
>= 8 km
>= 3000ft
5 to 8 km
1000 to 3000 ft
1500m to 5 km
500 to 1000 ft
800 to 1500m
200 to 500 ft
< 800m
< 200 ft
Symbols :   Thunderstorms  Fog  Heavy snow  Heavy precipitations  Wind > 20 kt
SIGMETs :     Misc.  Thunderstorms  Icing  Turbulence  Mountain Waves  Volcanic Ashes






- Airport Elevation : 235 ft
- IATA code : BZG


EPBY - Bydgoszcz

CURRENT METAR :
  • 220000Z 19006KT 9999 SCT029 06/04 Q1008

EXPIRED METARs :
  • 212330Z 19006KT 9999 SCT039 06/04 Q1008
  • 212300Z 19005KT 9999 BKN038 06/05 Q1009
  • 212230Z 21006KT 9999 BKN039 06/05 Q1009
  • 212200Z 20007KT 9999 BKN041 06/05 Q1009
  • 212130Z 21005KT 9999 BKN041 07/05 Q1009
  • 212100Z 22006KT 9999 BKN041 07/05 Q1010
  • 212030Z 22006KT 9999 BKN042 07/05 Q1010
  • 212000Z 23008KT 9999 SCT026 BKN035 07/05 Q1011
  • 211930Z 22011KT 9999 BKN044 07/05 Q1011

TAF TAF EPBY
Valid from the 22 at 00:00 until the 23 at 00:00 UTC


212330Z 2200/2224 18010KT 9999 SCT040
TEMPO 2209/2220 19015G25KT 4000 -RA BR BKN014



MET'MAP, your aeronautical weather chart ! - Copyright ORBIFLY December 2007 - Disclaimer

ORBIFLY MET'MAP TEAM :

Programming & Development : Alexandra Zaïnal
Original concept : Baudouin d'Aumeries
Technical & hardware support : Manuel Goepfert
Assistance : Marc-Olivier Méhu




SOURCES & CREDITS :

   NOAA